sensor_id;sensor_type;location;lat;lon;timestamp;P1;durP1;ratioP1;P2;durP2;ratioP2
27869;SDS011;15225;50.730;4.244;2022-09-28T18:07:58;10.63;;;4.22;;
27869;SDS011;15225;50.730;4.244;2022-09-28T18:10:24;12.10;;;4.90;;
27869;SDS011;15225;50.730;4.244;2022-09-28T18:12:51;11.27;;;3.17;;
27869;SDS011;15225;50.730;4.244;2022-09-28T18:15:17;7.97;;;3.10;;
27869;SDS011;15225;50.730;4.244;2022-09-28T18:17:43;17.13;;;4.13;;
27869;SDS011;15225;50.730;4.244;2022-09-28T18:20:09;9.35;;;4.47;;
27869;SDS011;15225;50.730;4.244;2022-09-28T18:22:37;6.60;;;4.18;;
27869;SDS011;15225;50.730;4.244;2022-09-28T18:25:03;6.22;;;3.50;;
27869;SDS011;15225;50.730;4.244;2022-09-28T18:27:32;10.98;;;3.92;;
27869;SDS011;15225;50.730;4.244;2022-09-28T18:30:00;8.07;;;3.08;;
27869;SDS011;15225;50.730;4.244;2022-09-28T18:32:27;8.68;;;3.35;;
27869;SDS011;15225;50.730;4.244;2022-09-28T18:34:53;8.70;;;3.03;;
27869;SDS011;15225;50.730;4.244;2022-09-28T18:37:18;5.60;;;2.63;;
27869;SDS011;15225;50.730;4.244;2022-09-28T18:39:44;5.55;;;2.70;;
27869;SDS011;15225;50.730;4.244;2022-09-28T18:42:10;8.48;;;3.70;;
27869;SDS011;15225;50.730;4.244;2022-09-28T18:44:37;6.07;;;3.13;;
27869;SDS011;15225;50.730;4.244;2022-09-28T18:47:03;5.25;;;3.38;;
27869;SDS011;15225;50.730;4.244;2022-09-28T18:49:29;8.95;;;4.70;;
27869;SDS011;15225;50.730;4.244;2022-09-28T18:51:55;9.40;;;5.55;;
27869;SDS011;15225;50.730;4.244;2022-09-28T18:54:22;9.70;;;5.70;;
27869;SDS011;15225;50.730;4.244;2022-09-28T18:56:48;19.40;;;6.78;;
27869;SDS011;15225;50.730;4.244;2022-09-28T18:59:17;13.30;;;7.25;;
27869;SDS011;15225;50.730;4.244;2022-09-28T19:01:43;11.70;;;5.90;;
27869;SDS011;15225;50.730;4.244;2022-09-28T19:04:09;8.93;;;5.40;;
27869;SDS011;15225;50.730;4.244;2022-09-28T19:06:38;35.97;;;13.10;;
27869;SDS011;15225;50.730;4.244;2022-09-28T19:09:05;18.40;;;6.40;;
27869;SDS011;15225;50.730;4.244;2022-09-28T19:11:31;11.13;;;5.68;;
27869;SDS011;15225;50.730;4.244;2022-09-28T19:13:57;11.00;;;5.80;;
27869;SDS011;15225;50.730;4.244;2022-09-28T19:16:25;11.45;;;6.57;;
27869;SDS011;15225;50.730;4.244;2022-09-28T19:18:54;10.82;;;6.60;;
27869;SDS011;15225;50.730;4.244;2022-09-28T19:21:24;17.13;;;9.55;;
27869;SDS011;15225;50.730;4.244;2022-09-28T19:23:50;10.02;;;7.70;;
27869;SDS011;15225;50.730;4.244;2022-09-28T19:26:23;17.77;;;8.73;;
27869;SDS011;15225;50.730;4.244;2022-09-28T19:28:50;12.38;;;7.50;;
27869;SDS011;15225;50.730;4.244;2022-09-28T19:31:17;9.65;;;6.60;;
27869;SDS011;15225;50.730;4.244;2022-09-28T19:33:43;9.00;;;5.95;;
27869;SDS011;15225;50.730;4.244;2022-09-28T19:36:30;11.00;;;6.20;;
27869;SDS011;15225;50.730;4.244;2022-09-28T19:38:57;10.63;;;6.00;;
27869;SDS011;15225;50.730;4.244;2022-09-28T19:44:05;15.43;;;5.68;;
27869;SDS011;15225;50.730;4.244;2022-09-28T19:46:34;9.88;;;5.75;;
27869;SDS011;15225;50.730;4.244;2022-09-28T19:49:05;11.45;;;5.97;;
27869;SDS011;15225;50.730;4.244;2022-09-28T19:51:31;20.73;;;9.85;;
27869;SDS011;15225;50.730;4.244;2022-09-28T19:53:57;15.07;;;6.60;;
27869;SDS011;15225;50.730;4.244;2022-09-28T19:56:25;11.90;;;6.07;;
27869;SDS011;15225;50.730;4.244;2022-09-28T19:58:50;12.05;;;6.65;;
27869;SDS011;15225;50.730;4.244;2022-09-28T20:01:16;13.20;;;6.45;;
27869;SDS011;15225;50.730;4.244;2022-09-28T20:03:42;11.82;;;6.95;;
27869;SDS011;15225;50.730;4.244;2022-09-28T20:06:08;9.88;;;6.15;;
27869;SDS011;15225;50.730;4.244;2022-09-28T20:08:33;9.30;;;6.88;;
27869;SDS011;15225;50.730;4.244;2022-09-28T20:10:59;10.93;;;7.53;;
27869;SDS011;15225;50.730;4.244;2022-09-28T20:13:29;15.57;;;7.70;;
27869;SDS011;15225;50.730;4.244;2022-09-28T20:16:03;11.10;;;7.03;;
27869;SDS011;15225;50.730;4.244;2022-09-28T20:18:32;15.18;;;7.72;;
27869;SDS011;15225;50.730;4.244;2022-09-28T20:21:00;12.48;;;6.82;;
27869;SDS011;15225;50.730;4.244;2022-09-28T20:23:34;13.23;;;7.07;;
27869;SDS011;15225;50.730;4.244;2022-09-28T20:26:03;10.02;;;6.80;;
27869;SDS011;15225;50.730;4.244;2022-09-28T20:28:37;12.20;;;5.97;;
27869;SDS011;15225;50.730;4.244;2022-09-28T20:31:25;12.13;;;6.47;;
27869;SDS011;15225;50.730;4.244;2022-09-28T20:33:51;18.48;;;7.13;;
